Time;durP1;ratioP1;P1;durP2;ratioP2;P2;SDS_P1;SDS_P2;PMS_P1;PMS_P2;Temp;Humidity;BMP_temperature;BMP_pressure;BME280_temperature;BME280_humidity;BME280_pressure;Samples;Min_cycle;Max_cycle;Signal;HPM_P1;HPM_P2
2022/10/12 00:01:33;;;;;;;29.23;11.30;;;6.60;99.90;;;;;;5133951;27;20050;-79
2022/10/12 00:03:59;;;;;;;28.63;11.95;;;6.80;99.90;;;;;;5134975;27;20042;-80
2022/10/12 00:06:24;;;;;;;29.80;10.80;;;6.90;99.90;;;;;;5134810;27;20036;-79
2022/10/12 00:08:53;;;;;;;35.97;12.65;;;6.70;99.90;;;;;;5133725;27;20149;-79
2022/10/12 00:11:28;;;;;;;29.00;10.93;;;6.70;99.90;;;;;;5139675;27;20106;-79
2022/10/12 00:13:54;;;;;;;33.05;12.10;;;6.70;99.90;;;;;;5150541;27;20043;-80
2022/10/12 00:16:22;;;;;;;29.10;11.87;;;6.70;99.90;;;;;;5151954;27;20050;-79
2022/10/12 00:18:54;;;;;;;;;;;6.80;99.90;;;;;;5169511;27;20339;-78
2022/10/12 00:21:20;;;;;;;25.83;9.68;;;6.80;99.90;;;;;;5147092;27;19919;-78
2022/10/12 00:23:47;;;;;;;33.38;9.85;;;6.80;99.90;;;;;;5159944;27;20137;-79
2022/10/12 00:26:18;;;;;;;23.00;9.05;;;6.80;99.90;;;;;;5122993;27;20046;-79
2022/10/12 00:28:44;;;;;;;24.85;7.97;;;6.70;99.90;;;;;;5105507;27;20496;-80
2022/10/12 00:31:16;;;;;;;27.42;8.95;;;6.70;99.90;;;;;;5156867;27;20050;-79
2022/10/12 00:33:43;;;;;;;28.17;10.38;;;6.70;99.90;;;;;;5137055;27;20563;-79
2022/10/12 00:36:22;;;;;;;33.53;10.90;;;6.70;99.90;;;;;;5136262;27;20050;-79
2022/10/12 00:38:49;;;;;;;23.90;9.25;;;6.70;99.90;;;;;;5136065;27;20056;-79
2022/10/12 00:41:17;;;;;;;24.88;11.80;;;6.60;99.90;;;;;;5135768;27;20043;-79
2022/10/12 00:43:43;;;;;;;26.00;9.73;;;6.60;99.90;;;;;;5154715;27;20058;-79
2022/10/12 00:46:31;;;;;;;32.80;10.63;;;6.70;99.90;;;;;;5118480;27;20084;-79
2022/10/12 00:49:09;;;;;;;30.73;11.05;;;6.70;99.90;;;;;;5135576;27;20050;-80
2022/10/12 00:51:36;;;;;;;27.30;10.18;;;6.70;99.90;;;;;;5154550;27;20592;-80
2022/10/12 00:54:05;;;;;;;27.10;10.40;;;7.40;99.90;;;;;;5154622;27;20360;-80
2022/10/12 00:56:33;;;;;;;33.92;10.70;;;6.70;99.90;;;;;;5135607;27;20133;-79
2022/10/12 00:59:02;;;;;;;25.45;10.93;;;6.70;99.90;;;;;;5118686;27;20550;-79
2022/10/12 01:01:32;;;;;;;31.48;11.02;;;6.70;99.90;;;;;;5155073;27;20046;-79
2022/10/12 01:03:58;;;;;;;24.55;10.25;;;6.70;99.90;;;;;;5123831;27;20129;-80
2022/10/12 01:06:24;;;;;;;27.13;9.85;;;6.70;99.90;;;;;;5140144;27;20126;-79
2022/10/12 01:08:50;;;;;;;26.75;10.05;;;6.60;99.90;;;;;;5122680;27;20497;-79
2022/10/12 01:11:16;;;;;;;27.65;10.82;;;7.00;99.90;;;;;;5139625;27;20038;-79
2022/10/12 01:13:41;;;;;;;23.80;10.35;;;6.60;99.90;;;;;;5139932;27;20046;-79
2022/10/12 01:16:21;;;;;;;26.58;11.38;;;6.70;99.90;;;;;;5138940;27;20135;-80
2022/10/12 01:19:18;;;;;;;26.40;9.95;;;6.60;99.90;;;;;;5139777;27;20136;-80
2022/10/12 01:21:56;;;;;;;25.48;9.95;;;6.60;99.90;;;;;;5139552;27;20088;-81
2022/10/12 01:24:37;;;;;;;24.40;9.40;;;6.60;99.90;;;;;;5157862;27;20046;-79
2022/10/12 01:27:26;;;;;;;23.58;9.52;;;6.60;99.90;;;;;;5139243;27;20050;-79
2022/10/12 01:30:10;;;;;;;20.58;9.13;;;6.60;99.90;;;;;;5139177;27;20479;-79
2022/10/12 01:33:07;;;;;;;30.13;9.63;;;6.80;99.90;;;;;;5121790;27;20051;-80
2022/10/12 01:35:47;;;;;;;21.45;9.18;;;6.60;99.90;;;;;;5157815;27;20477;-79
2022/10/12 01:38:26;;;;;;;22.13;9.07;;;6.70;99.90;;;;;;5139091;27;20134;-79
2022/10/12 01:40:58;;;;;;;20.45;8.43;;;6.50;99.90;;;;;;5122392;27;20084;-79
2022/10/12 01:43:36;;;;;;;22.67;9.38;;;6.50;99.90;;;;;;5157959;27;20039;-79
2022/10/12 01:46:22;;;;;;;21.23;8.57;;;6.50;99.90;;;;;;5138777;27;20066;-80
2022/10/12 01:48:50;;;;;;;21.38;9.15;;;6.60;99.90;;;;;;5121227;27;20066;-80
2022/10/12 01:51:26;;;;;;;23.77;8.80;;;6.50;99.90;;;;;;5157347;27;20395;-79
2022/10/12 01:53:51;;;;;;;25.52;9.07;;;6.50;99.90;;;;;;5157095;27;20046;-78
2022/10/12 01:56:27;;;;;;;22.23;9.32;;;6.10;99.90;;;;;;5121655;27;20047;-79
2022/10/12 01:59:19;;;;;;;27.98;9.20;;;6.40;99.90;;;;;;5138648;27;20047;-80
2022/10/12 02:02:14;;;;;;;24.83;10.52;;;6.40;99.90;;;;;;5122268;27;20057;-79
2022/10/12 02:04:46;;;;;;;29.83;11.18;;;6.40;99.90;;;;;;5138898;27;20043;-79
2022/10/12 02:07:21;;;;;;;33.28;11.50;;;6.20;99.90;;;;;;5138651;27;20046;-79
2022/10/12 02:09:47;;;;;;;25.33;10.60;;;6.40;99.90;;;;;;5138673;27;20129;-79
2022/10/12 02:12:19;;;;;;;30.65;11.07;;;6.00;99.90;;;;;;5158256;27;20119;-79
2022/10/12 02:14:48;;;;;;;24.95;11.02;;;6.30;99.90;;;;;;5120829;27;20103;-79
2022/10/12 02:17:17;;;;;;;31.48;11.45;;;6.20;99.90;;;;;;5139284;27;20046;-81
2022/10/12 02:19:54;;;;;;;24.10;11.25;;;6.30;99.90;;;;;;5123766;27;20416;-79
2022/10/12 02:22:23;;;;;;;28.95;10.32;;;6.30;99.90;;;;;;5160267;27;20409;-79
2022/10/12 02:24:52;;;;;;;25.42;11.02;;;6.20;99.90;;;;;;5159365;27;20047;-78
2022/10/12 02:27:20;;;;;;;35.30;11.82;;;6.10;99.90;;;;;;5158571;27;20046;-79
2022/10/12 02:29:47;;;;;;;28.40;11.30;;;6.10;99.90;;;;;;5140619;27;20092;-80
2022/10/12 02:32:22;;;;;;;;;;;6.10;99.90;;;;;;5158371;27;20069;-78
2022/10/12 02:34:50;;;;;;;21.58;10.65;;;6.10;99.90;;;;;;5139327;27;19919;-79
2022/10/12 02:37:37;;;;;;;26.95;11.13;;;6.10;99.90;;;;;;5138527;27;20078;-79
2022/10/12 02:40:16;;;;;;;28.08;10.48;;;6.00;99.90;;;;;;5137944;27;20098;-79
2022/10/12 02:42:50;;;;;;;23.50;10.70;;;6.00;99.90;;;;;;5138340;27;20043;-80
2022/10/12 02:45:18;;;;;;;27.00;11.10;;;5.90;99.90;;;;;;5138091;27;20050;-78
2022/10/12 02:47:46;;;;;;;24.92;10.85;;;5.90;99.90;;;;;;5156088;27;20493;-79
2022/10/12 02:50:13;;;;;;;23.67;10.82;;;5.90;99.90;;;;;;5137622;27;20054;-78
2022/10/12 02:52:39;;;;;;;28.13;11.15;;;5.60;99.90;;;;;;5120475;27;20053;-79
2022/10/12 02:55:05;;;;;;;30.02;11.52;;;5.90;99.90;;;;;;5137463;27;20046;-78
2022/10/12 02:57:31;;;;;;;28.73;10.45;;;5.90;99.90;;;;;;5121355;27;20042;-78
2022/10/12 02:59:56;;;;;;;28.45;11.15;;;6.10;99.90;;;;;;5155953;27;20055;-78
2022/10/12 03:02:22;;;;;;;27.77;11.48;;;5.90;99.90;;;;;;5155940;27;20089;-78
2022/10/12 03:04:48;;;;;;;25.17;11.02;;;5.90;99.90;;;;;;5119924;27;20375;-79
2022/10/12 03:07:14;;;;;;;25.83;11.10;;;5.90;99.90;;;;;;5120404;27;20482;-79
2022/10/12 03:09:39;;;;;;;24.52;12.20;;;5.60;99.90;;;;;;5155733;27;20078;-83
2022/10/12 03:12:05;;;;;;;26.20;10.98;;;5.90;99.90;;;;;;5119984;27;20482;-79
2022/10/12 03:14:32;;;;;;;32.53;11.95;;;5.90;99.90;;;;;;5120080;27;20062;-79
2022/10/12 03:16:58;;;;;;;25.38;13.13;;;6.20;99.90;;;;;;5155673;27;20122;-78
2022/10/12 03:19:24;;;;;;;29.77;12.02;;;5.90;99.90;;;;;;5156225;27;20103;-77
2022/10/12 03:21:50;;;;;;;26.83;12.10;;;5.90;99.90;;;;;;5136927;27;20175;-79
2022/10/12 03:24:15;;;;;;;24.42;12.70;;;5.40;99.90;;;;;;5120718;27;20180;-81
2022/10/12 03:26:41;;;;;;;31.42;13.32;;;5.80;99.90;;;;;;5136881;27;20191;-80
2022/10/12 03:29:08;;;;;;;23.45;12.00;;;5.80;99.90;;;;;;5136986;27;20057;-79
2022/10/12 03:31:33;;;;;;;24.17;11.13;;;5.80;99.90;;;;;;5136844;27;20045;-80
2022/10/12 03:33:59;;;;;;;23.35;11.63;;;6.10;99.90;;;;;;5137349;27;20304;-79
2022/10/12 03:36:25;;;;;;;24.38;11.02;;;5.90;99.90;;;;;;5155183;27;20042;-80
2022/10/12 03:38:51;;;;;;;27.15;11.23;;;5.90;99.90;;;;;;5155228;27;20051;-79
2022/10/12 03:41:17;;;;;;;27.83;11.75;;;5.80;99.90;;;;;;5102213;27;20100;-80
2022/10/12 03:43:42;;;;;;;27.58;11.05;;;5.80;99.90;;;;;;5155504;27;20035;-81
2022/10/12 03:46:08;;;;;;;24.75;10.82;;;5.70;99.90;;;;;;5136573;27;20043;-80
2022/10/12 03:48:34;;;;;;;21.60;10.70;;;6.10;99.90;;;;;;5136604;27;20066;-79
2022/10/12 03:50:59;;;;;;;31.83;11.07;;;5.60;99.90;;;;;;5137076;27;20053;-80
2022/10/12 03:53:25;;;;;;;23.52;10.35;;;5.60;99.90;;;;;;5119557;27;20069;-81
2022/10/12 03:55:51;;;;;;;26.67;11.15;;;5.60;99.90;;;;;;5136430;27;20398;-80
2022/10/12 03:58:17;;;;;;;28.45;11.27;;;5.60;99.90;;;;;;5119294;27;20235;-81
2022/10/12 04:00:43;;;;;;;28.90;10.57;;;5.90;99.90;;;;;;5137019;27;20038;-80
2022/10/12 04:03:09;;;;;;;22.15;11.13;;;5.60;99.90;;;;;;5136447;27;20050;-80
2022/10/12 04:05:35;;;;;;;27.30;11.95;;;5.60;99.90;;;;;;5136330;27;20050;-81
2022/10/12 04:08:01;;;;;;;30.13;11.57;;;5.50;99.90;;;;;;5136090;27;20043;-80
2022/10/12 04:10:27;;;;;;;22.75;10.98;;;5.60;99.90;;;;;;5135883;27;20450;-81
2022/10/12 04:12:53;;;;;;;26.88;10.85;;;5.60;99.90;;;;;;5154797;27;20039;-80
2022/10/12 04:15:19;;;;;;;23.00;11.07;;;5.50;99.90;;;;;;5136706;27;20462;-80
2022/10/12 04:17:45;;;;;;;25.40;11.18;;;5.50;99.90;;;;;;5119662;27;20093;-81
2022/10/12 04:20:11;;;;;;;27.50;10.55;;;5.50;99.90;;;;;;5119293;27;20129;-80
2022/10/12 04:22:38;;;;;;;26.88;11.23;;;5.60;99.90;;;;;;5135991;27;20451;-81
2022/10/12 04:25:04;;;;;;;25.07;11.03;;;5.20;99.90;;;;;;5118977;27;20038;-80
2022/10/12 04:27:29;;;;;;;25.73;10.65;;;5.50;99.90;;;;;;5135765;27;20613;-81
2022/10/12 04:29:55;;;;;;;27.55;11.13;;;5.80;99.90;;;;;;5102516;27;20049;-81
2022/10/12 04:32:21;;;;;;;30.30;11.18;;;5.50;99.90;;;;;;5154365;27;20043;-81
2022/10/12 04:34:47;;;;;;;28.67;11.35;;;5.50;99.90;;;;;;5154221;27;20138;-80
2022/10/12 04:37:12;;;;;;;28.55;11.20;;;5.80;99.90;;;;;;5118377;27;20055;-81
2022/10/12 04:39:38;;;;;;;25.95;11.52;;;5.50;99.90;;;;;;5118829;27;20399;-84
2022/10/12 04:42:05;;;;;;;25.58;11.13;;;5.50;99.90;;;;;;5135517;27;20102;-80
2022/10/12 04:44:31;;;;;;;;;;;5.40;99.90;;;;;;5135977;27;20047;-80
2022/10/12 04:46:57;;;;;;;26.55;9.70;;;5.40;99.90;;;;;;5119516;27;19922;-79
2022/10/12 04:49:23;;;;;;;23.20;10.70;;;5.40;99.90;;;;;;5135610;27;20502;-81
2022/10/12 04:51:48;;;;;;;27.08;11.15;;;5.30;99.90;;;;;;5154354;27;20092;-80
2022/10/12 04:54:14;;;;;;;33.58;11.18;;;5.30;99.90;;;;;;5118677;27;20053;-82
2022/10/12 04:56:40;;;;;;;27.38;11.45;;;5.30;99.90;;;;;;5118357;27;20367;-80
2022/10/12 04:59:06;;;;;;;25.17;10.50;;;5.30;99.90;;;;;;5154197;27;20196;-79
2022/10/12 05:01:31;;;;;;;29.45;11.30;;;5.20;99.90;;;;;;5118472;27;20489;-80
2022/10/12 05:03:59;;;;;;;26.30;11.82;;;5.10;99.90;;;;;;5135602;27;20047;-80
2022/10/12 05:06:24;;;;;;;26.48;10.43;;;5.10;99.90;;;;;;5102251;27;20389;-80
2022/10/12 05:08:50;;;;;;;25.08;9.88;;;5.10;99.90;;;;;;5135501;27;20055;-80
2022/10/12 05:11:16;;;;;;;27.00;10.85;;;5.10;99.90;;;;;;5135152;27;20086;-80
2022/10/12 05:13:41;;;;;;;23.75;11.20;;;5.10;99.90;;;;;;5118528;27;20086;-80
2022/10/12 05:16:07;;;;;;;30.02;11.80;;;5.50;99.90;;;;;;5134838;27;20046;-80
2022/10/12 05:18:33;;;;;;;24.27;11.52;;;5.00;99.90;;;;;;5135603;27;20050;-80
2022/10/12 05:20:59;;;;;;;26.40;11.23;;;5.40;99.90;;;;;;5101527;27;20046;-80
2022/10/12 05:23:24;;;;;;;31.27;12.25;;;5.20;99.90;;;;;;5135670;27;20050;-80
2022/10/12 05:25:50;;;;;;;26.23;12.20;;;5.00;99.90;;;;;;5118463;27;20042;-79
2022/10/12 05:28:16;;;;;;;30.33;11.13;;;5.60;99.90;;;;;;5118902;27;20479;-80
2022/10/12 05:30:41;;;;;;;31.35;12.52;;;5.00;99.90;;;;;;5138098;27;20182;-80
2022/10/12 05:33:07;;;;;;;33.70;11.80;;;5.00;99.90;;;;;;5129208;27;20046;-79
2022/10/12 05:35:33;;;;;;;25.45;11.82;;;5.00;99.90;;;;;;5116981;27;20371;-81
2022/10/12 05:37:58;;;;;;;29.80;13.55;;;5.10;99.90;;;;;;5134594;27;20091;-81
2022/10/12 05:40:24;;;;;;;29.92;11.82;;;5.00;99.90;;;;;;5133005;27;20057;-80
2022/10/12 05:42:51;;;;;;;27.25;12.02;;;5.10;99.90;;;;;;5125257;27;20043;-80
2022/10/12 05:45:17;;;;;;;30.48;11.93;;;5.10;99.90;;;;;;5141923;27;20051;-79
2022/10/12 05:47:42;;;;;;;29.92;11.15;;;5.10;99.90;;;;;;5159356;27;20069;-81
2022/10/12 05:50:08;;;;;;;32.65;12.23;;;5.10;99.90;;;;;;5142932;27;20354;-80
2022/10/12 05:52:35;;;;;;;32.00;11.82;;;5.10;99.90;;;;;;5158990;27;20082;-79
2022/10/12 05:55:00;;;;;;;26.02;11.82;;;5.10;99.90;;;;;;5158655;27;20043;-81
2022/10/12 05:57:26;;;;;;;32.67;11.32;;;5.20;99.90;;;;;;5139750;27;20417;-82
2022/10/12 05:59:52;;;;;;;32.85;12.00;;;5.10;99.90;;;;;;5123761;27;20087;-81
2022/10/12 06:02:18;;;;;;;24.88;10.90;;;5.00;99.90;;;;;;5122397;27;20411;-80
2022/10/12 06:04:44;;;;;;;24.92;11.70;;;4.90;99.90;;;;;;5122332;27;20046;-80
2022/10/12 06:07:10;;;;;;;25.98;11.90;;;4.90;99.90;;;;;;5139897;27;20402;-81
2022/10/12 06:09:37;;;;;;;27.00;10.45;;;4.90;99.90;;;;;;5157782;27;20127;-84
2022/10/12 06:12:04;;;;;;;24.65;10.98;;;4.90;99.90;;;;;;5157246;27;20043;-81
2022/10/12 06:14:30;;;;;;;22.92;10.40;;;4.80;99.90;;;;;;5118407;27;20054;-83
2022/10/12 06:16:56;;;;;;;27.70;10.90;;;4.70;99.90;;;;;;5118207;27;20066;-81
2022/10/12 06:19:21;;;;;;;26.17;10.57;;;4.80;99.90;;;;;;5117885;27;20043;-81
2022/10/12 06:21:48;;;;;;;27.77;12.32;;;4.80;99.90;;;;;;5135152;27;20039;-81
2022/10/12 06:24:14;;;;;;;25.13;11.32;;;4.80;99.90;;;;;;5134920;27;20131;-82
2022/10/12 06:26:39;;;;;;;26.30;11.75;;;4.70;99.90;;;;;;5135800;27;20371;-82
2022/10/12 06:29:06;;;;;;;28.42;10.90;;;4.80;99.90;;;;;;5100826;27;20139;-81
2022/10/12 06:31:32;;;;;;;27.92;11.98;;;4.80;99.90;;;;;;5117320;27;20510;-81
2022/10/12 06:33:58;;;;;;;31.17;12.43;;;4.80;99.90;;;;;;5134560;27;20491;-82
2022/10/12 06:36:24;;;;;;;24.65;11.57;;;4.80;99.90;;;;;;5135509;27;20323;-81
2022/10/12 06:38:50;;;;;;;27.42;11.38;;;4.80;99.90;;;;;;5134486;27;20043;-81
2022/10/12 06:41:16;;;;;;;27.70;11.65;;;5.20;99.90;;;;;;5117620;27;20479;-80
2022/10/12 06:43:42;;;;;;;24.58;10.60;;;5.30;99.90;;;;;;5100463;27;20083;-81
2022/10/12 06:46:07;;;;;;;31.85;11.63;;;4.80;99.90;;;;;;5134204;27;20421;-81
2022/10/12 06:48:33;;;;;;;33.22;11.88;;;5.10;99.90;;;;;;5135845;27;20438;-81
2022/10/12 06:50:59;;;;;;;31.38;13.07;;;4.90;99.90;;;;;;5134372;27;20047;-80
2022/10/12 06:53:27;;;;;;;31.35;13.00;;;5.20;99.90;;;;;;5116909;27;20038;-80
2022/10/12 06:55:53;;;;;;;29.92;12.32;;;5.10;99.90;;;;;;5133956;27;20087;-81
2022/10/12 06:58:19;;;;;;;26.80;10.38;;;5.00;99.90;;;;;;5135320;27;20078;-81
2022/10/12 07:00:44;;;;;;;25.95;10.52;;;5.10;99.90;;;;;;5134792;27;20448;-81
2022/10/12 07:03:13;;;;;;;26.52;11.27;;;5.20;99.90;;;;;;5134295;27;20047;-80
2022/10/12 07:05:38;;;;;;;28.95;10.70;;;5.30;99.90;;;;;;5134365;27;20139;-80
2022/10/12 07:08:04;;;;;;;25.48;11.07;;;5.40;99.90;;;;;;5135958;27;20053;-80
2022/10/12 07:10:30;;;;;;;25.35;10.32;;;5.40;99.90;;;;;;5117548;27;20351;-81
2022/10/12 07:12:55;;;;;;;29.92;11.32;;;5.60;99.90;;;;;;5117741;27;20107;-80
2022/10/12 07:15:21;;;;;;;32.70;11.27;;;6.10;99.90;;;;;;5133449;27;20116;-81
2022/10/12 07:17:47;;;;;;;31.02;12.25;;;5.70;99.90;;;;;;5135302;27;20171;-80
2022/10/12 07:20:13;;;;;;;26.02;10.90;;;5.90;99.90;;;;;;5133948;27;20118;-80
2022/10/12 07:22:38;;;;;;;27.92;10.85;;;6.00;99.90;;;;;;5134848;27;20036;-82
2022/10/12 07:25:05;;;;;;;28.40;10.48;;;6.20;99.90;;;;;;5134788;27;20047;-81
2022/10/12 07:27:30;;;;;;;31.38;10.82;;;6.40;99.90;;;;;;5099755;27;20141;-80
2022/10/12 07:29:56;;;;;;;31.42;10.25;;;6.60;99.90;;;;;;5133488;27;20082;-81
2022/10/12 07:32:22;;;;;;;27.67;9.25;;;6.90;99.90;;;;;;5134792;27;20043;-80
2022/10/12 07:34:47;;;;;;;27.08;9.95;;;7.10;99.90;;;;;;5134354;27;20047;-80
2022/10/12 07:37:14;;;;;;;24.50;8.98;;;7.00;99.90;;;;;;5134243;27;20053;-80
2022/10/12 07:39:40;;;;;;;23.60;8.90;;;7.50;99.90;;;;;;5134165;27;20086;-81
2022/10/12 07:42:06;;;;;;;21.60;7.30;;;7.70;99.90;;;;;;5134597;27;20280;-82
2022/10/12 07:44:32;;;;;;;29.50;8.03;;;7.80;99.90;;;;;;5134243;27;20059;-80
2022/10/12 07:46:58;;;;;;;24.98;7.63;;;8.00;99.90;;;;;;5134597;27;20046;-81
2022/10/12 07:49:24;;;;;;;27.83;7.88;;;8.20;99.90;;;;;;5116852;27;20077;-82
2022/10/12 07:51:49;;;;;;;24.48;7.07;;;8.30;99.90;;;;;;5133191;27;20176;-82
2022/10/12 07:54:15;;;;;;;20.80;6.78;;;8.40;99.90;;;;;;5133230;27;20126;-78
2022/10/12 07:56:41;;;;;;;20.60;7.25;;;8.50;99.90;;;;;;5133008;27;20069;-80
2022/10/12 07:59:07;;;;;;;18.63;6.55;;;8.60;99.90;;;;;;5133237;27;20424;-80
2022/10/12 08:01:33;;;;;;;20.02;6.50;;;8.60;99.90;;;;;;5132870;27;20039;-80
2022/10/12 08:03:59;;;;;;;23.42;6.32;;;8.70;99.90;;;;;;5133226;27;20065;-80
2022/10/12 08:06:29;;;;;;;19.63;6.10;;;8.70;99.90;;;;;;5134122;27;20043;-80
2022/10/12 08:08:57;;;;;;;19.23;5.97;;;8.80;99.90;;;;;;5132975;27;20130;-81
2022/10/12 08:11:23;;;;;;;19.40;6.30;;;8.80;99.90;;;;;;5133739;27;20112;-82
2022/10/12 08:13:48;;;;;;;20.95;6.03;;;8.80;99.90;;;;;;5132846;27;20046;-82
2022/10/12 08:16:18;;;;;;;22.48;6.15;;;8.90;99.90;;;;;;5132803;27;20066;-82
2022/10/12 08:18:43;;;;;;;21.35;6.55;;;8.90;99.90;;;;;;5133425;27;20089;-80
2022/10/12 08:21:11;;;;;;;22.40;5.88;;;9.00;99.90;;;;;;5133909;27;20047;-81
2022/10/12 08:23:37;;;;;;;20.58;6.00;;;9.00;99.90;;;;;;5132982;27;20062;-80
2022/10/12 08:26:04;;;;;;;19.02;6.35;;;9.00;99.90;;;;;;5134170;27;20047;-79
2022/10/12 08:28:30;;;;;;;;;;;9.00;99.90;;;;;;5133685;27;20139;-79
2022/10/12 08:30:56;;;;;;;17.08;6.30;;;9.00;99.90;;;;;;5133688;27;19923;-80
2022/10/12 08:33:22;;;;;;;19.27;6.55;;;8.90;99.90;;;;;;5134743;27;20062;-78
2022/10/12 08:35:48;;;;;;;22.58;7.38;;;8.90;99.90;;;;;;5133904;28;20126;-81
2022/10/12 08:38:14;;;;;;;19.02;6.55;;;8.90;99.90;;;;;;5116828;28;20506;-80
2022/10/12 08:40:55;;;;;;;25.35;7.22;;;8.90;99.90;;;;;;5134308;28;20077;-79
2022/10/12 08:43:24;;;;;;;16.10;6.55;;;8.90;99.90;;;;;;5134022;28;20043;-79
2022/10/12 08:45:55;;;;;;;18.27;6.22;;;8.90;99.90;;;;;;5115704;28;20058;-80
2022/10/12 08:48:27;;;;;;;18.98;5.75;;;9.00;99.90;;;;;;5133969;27;20047;-78
2022/10/12 08:51:00;;;;;;;19.55;6.38;;;9.00;99.90;;;;;;5133487;28;20043;-79
2022/10/12 08:53:51;;;;;;;19.70;5.90;;;9.00;99.90;;;;;;5132960;28;20356;-78
2022/10/12 08:56:18;;;;;;;23.73;6.32;;;9.00;99.90;;;;;;5134418;27;20424;-79
2022/10/12 08:58:46;;;;;;;20.02;6.07;;;9.00;99.90;;;;;;5133551;27;20047;-78
2022/10/12 09:01:20;;;;;;;17.33;5.85;;;9.00;99.90;;;;;;5133439;27;20130;-80
2022/10/12 09:04:08;;;;;;;17.02;5.40;;;9.00;99.90;;;;;;5132609;28;20120;-77
2022/10/12 09:06:44;;;;;;;23.33;6.38;;;9.10;99.90;;;;;;5132063;28;20116;-78
2022/10/12 09:09:29;;;;;;;20.83;5.43;;;9.00;99.90;;;;;;5115445;28;20127;-78
2022/10/12 09:12:25;;;;;;;22.05;5.80;;;9.00;99.90;;;;;;5131980;28;20126;-79
2022/10/12 09:14:59;;;;;;;20.15;5.90;;;9.00;99.90;;;;;;5140562;27;20047;-79
2022/10/12 09:17:39;;;;;;;18.42;6.45;;;9.00;99.90;;;;;;5154602;27;20074;-79
2022/10/12 09:20:21;;;;;;;14.57;5.68;;;9.20;99.90;;;;;;5154811;27;20373;-79
2022/10/12 09:22:54;;;;;;;22.50;6.35;;;9.20;99.90;;;;;;5156133;27;20060;-79
2022/10/12 09:25:24;;;;;;;21.40;6.32;;;9.30;99.90;;;;;;5157927;27;20086;-78
2022/10/12 09:27:50;;;;;;;21.67;6.47;;;9.30;99.90;;;;;;5123245;27;20173;-78
2022/10/12 09:30:18;;;;;;;19.08;6.10;;;9.30;99.90;;;;;;5157917;27;20057;-79
2022/10/12 09:33:08;;;;;;;20.08;6.07;;;9.30;99.90;;;;;;5157449;27;20505;-78
2022/10/12 09:35:35;;;;;;;17.30;6.20;;;9.30;99.90;;;;;;5157806;27;20043;-78
2022/10/12 09:38:02;;;;;;;20.35;6.30;;;9.30;99.90;;;;;;5157710;27;20374;-79
2022/10/12 09:40:31;;;;;;;20.48;7.20;;;9.40;99.90;;;;;;5139811;27;20081;-79
2022/10/12 09:43:00;;;;;;;19.63;6.47;;;9.50;99.90;;;;;;5157557;27;20050;-77
2022/10/12 09:45:29;;;;;;;22.75;7.13;;;9.60;99.90;;;;;;5138932;27;20051;-78
2022/10/12 09:48:20;;;;;;;22.95;7.45;;;9.80;99.90;;;;;;5138494;27;20125;-79
2022/10/12 09:51:06;;;;;;;21.85;7.10;;;10.00;99.90;;;;;;5122211;27;20046;-79
2022/10/12 09:53:39;;;;;;;17.67;6.18;;;10.00;99.90;;;;;;5138444;27;20118;-78
2022/10/12 09:56:11;;;;;;;24.38;6.25;;;10.20;99.90;;;;;;5138537;27;20126;-78
2022/10/12 09:58:42;;;;;;;23.77;5.82;;;10.30;99.90;;;;;;5139670;27;20043;-79
2022/10/12 10:01:29;;;;;;;21.05;7.00;;;10.40;99.90;;;;;;5139431;27;20371;-77
2022/10/12 10:04:22;;;;;;;17.02;5.30;;;10.70;99.90;;;;;;5139524;27;20057;-77
2022/10/12 10:06:48;;;;;;;19.95;5.30;;;10.80;99.90;;;;;;5138811;27;20042;-77
2022/10/12 10:09:34;;;;;;;21.00;5.53;;;10.90;99.90;;;;;;5138967;27;20125;-76
2022/10/12 10:12:24;;;;;;;17.23;4.50;;;10.90;99.90;;;;;;5138972;27;20047;-77
2022/10/12 10:14:52;;;;;;;17.15;5.03;;;11.00;99.90;;;;;;5157295;27;20066;-77
2022/10/12 10:17:31;;;;;;;16.05;5.65;;;11.00;99.90;;;;;;5138426;27;20047;-77
2022/10/12 10:20:00;;;;;;;16.88;4.28;;;11.10;99.90;;;;;;5139216;27;20042;-78
2022/10/12 10:22:27;;;;;;;17.10;4.95;;;11.10;99.90;;;;;;5139076;27;20501;-79
2022/10/12 10:24:56;;;;;;;17.55;4.95;;;11.20;99.90;;;;;;5138795;27;20058;-78
2022/10/12 10:27:36;;;;;;;21.20;4.97;;;11.30;99.90;;;;;;5121630;27;20050;-78
2022/10/12 10:30:17;;;;;;;15.68;4.53;;;11.30;99.90;;;;;;5138958;27;20375;-80
2022/10/12 10:32:44;;;;;;;17.92;4.82;;;11.40;99.90;;;;;;5120741;27;20451;-79
2022/10/12 10:35:30;;;;;;;13.63;4.75;;;11.40;99.90;;;;;;5156384;27;20087;-77
2022/10/12 10:38:14;;;;;;;14.05;4.75;;;11.50;99.90;;;;;;5157179;27;20083;-79
2022/10/12 10:41:03;;;;;;;19.25;4.50;;;11.60;99.90;;;;;;5157598;27;20444;-78
2022/10/12 10:43:48;;;;;;;16.90;5.07;;;11.70;99.90;;;;;;5157347;27;20188;-79
2022/10/12 10:46:36;;;;;;;12.40;4.28;;;11.60;99.90;;;;;;5156905;27;20240;-78
2022/10/12 10:49:06;;;;;;;19.77;5.47;;;11.70;99.90;;;;;;5140564;27;20051;-78
2022/10/12 10:51:58;;;;;;;16.45;4.90;;;11.80;99.90;;;;;;5158870;27;20391;-78
2022/10/12 10:54:33;;;;;;;21.60;5.25;;;11.80;99.90;;;;;;5142956;27;20356;-79
2022/10/12 10:57:13;;;;;;;17.33;5.57;;;11.90;99.90;;;;;;5165023;27;20121;-80
2022/10/12 11:00:02;;;;;;;18.88;5.63;;;11.90;99.90;;;;;;5143282;27;20122;-79
2022/10/12 11:02:51;;;;;;;17.48;4.72;;;11.90;99.90;;;;;;5160268;27;20057;-78
2022/10/12 11:05:36;;;;;;;21.83;5.10;;;12.00;99.90;;;;;;5158459;27;20039;-77
2022/10/12 11:08:19;;;;;;;19.98;4.63;;;12.00;99.90;;;;;;5121768;27;20053;-76
2022/10/12 11:11:10;;;;;;;14.48;5.35;;;12.10;99.90;;;;;;5138443;27;20054;-79
2022/10/12 11:13:59;;;;;;;18.30;5.20;;;12.30;99.90;;;;;;5156645;27;20066;-77
2022/10/12 11:16:32;;;;;;;17.77;5.15;;;12.20;99.90;;;;;;5120963;27;20047;-80
2022/10/12 11:19:05;;;;;;;15.75;4.13;;;12.30;99.90;;;;;;5155761;27;20053;-77
2022/10/12 11:22:05;;;;;;;14.88;4.75;;;12.50;99.90;;;;;;5156266;27;20045;-77
2022/10/12 11:24:55;;;;;;;19.67;4.20;;;12.60;99.90;;;;;;5155483;27;20117;-76
2022/10/12 11:27:38;;;;;;;15.20;4.35;;;12.50;99.90;;;;;;5137975;27;20050;-77
2022/10/12 11:30:19;;;;;;;15.35;4.20;;;12.60;99.90;;;;;;5136888;27;20394;-76
2022/10/12 11:33:01;;;;;;;14.50;4.93;;;12.60;99.90;;;;;;5155845;27;20549;-77
2022/10/12 11:35:40;;;;;;;16.23;4.95;;;12.70;99.90;;;;;;5138167;27;20046;-78
2022/10/12 11:38:14;;;;;;;23.95;5.30;;;12.70;99.90;;;;;;5137291;27;20089;-77
2022/10/12 11:40:52;;;;;;;13.95;4.80;;;12.80;99.90;;;;;;5120740;27;20050;-78
2022/10/12 11:43:23;;;;;;;16.45;4.60;;;12.80;99.90;;;;;;5156164;27;20097;-77
2022/10/12 11:45:53;;;;;;;17.30;4.63;;;12.80;99.90;;;;;;5120388;27;20046;-78
2022/10/12 11:48:27;;;;;;;14.65;4.38;;;12.90;99.90;;;;;;5155401;27;20147;-76
2022/10/12 11:50:56;;;;;;;18.05;4.43;;;12.90;99.90;;;;;;5136728;27;20095;-75
2022/10/12 11:53:41;;;;;;;16.52;4.63;;;13.00;99.90;;;;;;5155147;27;20122;-76
2022/10/12 11:56:48;;;;;;;12.82;4.53;;;13.10;99.90;;;;;;5136433;27;20118;-75
2022/10/12 11:59:33;;;;;;;17.17;5.18;;;13.20;99.90;;;;;;5131350;27;20136;-75
2022/10/12 12:02:21;;;;;;;13.77;4.70;;;13.20;99.90;;;;;;5136963;27;20055;-75
2022/10/12 12:04:47;;;;;;;15.35;5.53;;;13.30;99.90;;;;;;5155268;27;20052;-76
2022/10/12 12:07:22;;;;;;;17.80;4.65;;;13.30;99.90;;;;;;5155046;27;20081;-74
2022/10/12 12:09:48;;;;;;;14.73;4.70;;;13.30;99.90;;;;;;5154836;27;20146;-76
2022/10/12 12:12:20;;;;;;;20.50;5.55;;;13.50;99.90;;;;;;5154731;27;20042;-76
2022/10/12 12:14:59;;;;;;;19.52;6.32;;;13.50;99.90;;;;;;5155317;27;20355;-76
2022/10/12 12:17:28;;;;;;;19.10;5.43;;;13.50;99.90;;;;;;5137128;27;20208;-76
2022/10/12 12:19:56;;;;;;;12.35;5.38;;;13.50;99.90;;;;;;5119305;27;20062;-77
2022/10/12 12:22:25;;;;;;;19.80;5.80;;;13.40;99.90;;;;;;5136409;27;20053;-77
2022/10/12 12:24:57;;;;;;;17.80;5.60;;;13.50;99.90;;;;;;5154868;27;20054;-78
2022/10/12 12:27:29;;;;;;;22.95;6.55;;;13.60;99.90;;;;;;5154948;27;20100;-77
2022/10/12 12:29:56;;;;;;;14.70;5.57;;;13.60;99.90;;;;;;5154658;27;20089;-76
2022/10/12 12:32:25;;;;;;;17.80;6.28;;;13.70;99.90;;;;;;5155152;27;20046;-77
2022/10/12 12:34:57;;;;;;;12.90;5.22;;;13.60;99.90;;;;;;5118835;27;20048;-76
2022/10/12 12:37:29;;;;;;;20.67;4.97;;;13.70;99.90;;;;;;5136028;27;20050;-75
2022/10/12 12:40:00;;;;;;;17.10;5.40;;;13.90;99.90;;;;;;5136619;27;20065;-76
2022/10/12 12:42:33;;;;;;;14.40;4.57;;;13.90;99.90;;;;;;5136524;27;20478;-77
2022/10/12 12:45:44;;;;;;;23.52;4.80;;;13.90;99.90;;;;;;5120764;27;20381;-77
2022/10/12 12:48:10;;;;;;;15.73;4.53;;;13.90;99.90;;;;;;5150361;27;20115;-76
2022/10/12 12:50:38;;;;;;;14.00;4.28;;;13.90;99.90;;;;;;5137496;27;20462;-76
2022/10/12 12:53:13;;;;;;;17.83;5.20;;;13.90;99.90;;;;;;5137180;27;20050;-76
2022/10/12 12:55:47;;;;;;;21.38;4.50;;;14.00;99.90;;;;;;5137315;27;20049;-77
2022/10/12 12:58:49;;;;;;;20.67;4.70;;;;;;;;;;5138659;27;20516;-74
2022/10/12 13:01:39;;;;;;;13.32;4.75;;;14.20;99.90;;;;;;5054200;28;20040;-73